createdAt,value
2023-01-04T00:01:55.481Z,41.50
2023-01-04T00:04:22.314Z,38.63
2023-01-04T00:06:49.197Z,35.92
2023-01-04T00:09:16.053Z,44.05
2023-01-04T00:11:42.879Z,41.15
2023-01-04T00:14:10.961Z,38.88
2023-01-04T00:16:38.016Z,41.47
2023-01-04T00:19:04.939Z,35.80
2023-01-04T00:21:31.999Z,35.15
2023-01-04T00:24:00.872Z,40.47
2023-01-04T00:26:30.880Z,36.65
2023-01-04T00:29:00.762Z,38.15
2023-01-04T00:31:28.816Z,41.28
2023-01-04T00:33:57.724Z,40.22
2023-01-04T00:36:25.324Z,28.50
2023-01-04T00:39:07.716Z,30.65
2023-01-04T00:44:27.028Z,34.92
2023-01-04T00:46:54.113Z,33.25
2023-01-04T00:49:21.083Z,32.80
2023-01-04T00:51:47.934Z,29.80
2023-01-04T00:54:16.634Z,30.17
2023-01-04T00:56:43.918Z,29.60
2023-01-04T00:59:13.278Z,31.75
2023-01-04T01:01:41.455Z,35.92
2023-01-04T01:04:12.418Z,32.60
2023-01-04T01:06:39.491Z,35.50
2023-01-04T01:09:06.951Z,31.67
2023-01-04T01:11:36.589Z,38.20
2023-01-04T01:14:05.118Z,32.08
2023-01-04T01:16:54.516Z,29.48
2023-01-04T01:19:18.876Z,35.78
2023-01-04T01:21:45.726Z,32.17
2023-01-04T01:24:19.281Z,32.90
2023-01-04T01:29:13.390Z,35.35
2023-01-04T01:31:41.139Z,33.05
2023-01-04T01:34:08.699Z,34.63
2023-01-04T01:36:36.477Z,32.88
2023-01-04T01:39:05.578Z,33.40
2023-01-04T01:41:34.480Z,31.50
2023-01-04T01:44:01.271Z,30.67
2023-01-04T01:46:52.268Z,37.90
2023-01-04T01:49:31.077Z,31.08
2023-01-04T01:52:01.874Z,33.55
2023-01-04T01:54:41.035Z,32.53
2023-01-04T01:57:13.693Z,31.42
2023-01-04T01:59:44.137Z,29.10
2023-01-04T02:02:11.610Z,30.38
2023-01-04T02:04:41.660Z,30.75
2023-01-04T02:07:10.956Z,26.95
2023-01-04T02:09:38.088Z,31.30
2023-01-04T02:12:05.269Z,31.55
2023-01-04T02:14:32.109Z,26.20
2023-01-04T02:17:17.118Z,31.45
2023-01-04T02:19:59.078Z,25.27
2023-01-04T02:22:25.894Z,25.20
2023-01-04T02:25:17.884Z,27.67
2023-01-04T02:27:54.779Z,34.05
2023-01-04T02:30:35.036Z,26.65
2023-01-04T02:33:41.868Z,31.25
2023-01-04T02:37:05.779Z,30.60
2023-01-04T02:39:35.722Z,33.03
2023-01-04T02:42:58.880Z,28.23
2023-01-04T02:45:32.834Z,30.00
2023-01-04T02:48:24.111Z,27.83
2023-01-04T02:50:53.934Z,28.27
2023-01-04T02:53:25.640Z,30.75
2023-01-04T02:56:15.040Z,30.90
2023-01-04T02:59:08.328Z,31.80
2023-01-04T03:02:17.401Z,27.77
2023-01-04T03:05:26.065Z,35.78
2023-01-04T03:08:06.872Z,33.55
2023-01-04T03:10:47.380Z,36.38
2023-01-04T03:13:39.585Z,37.70
2023-01-04T03:16:16.067Z,39.35
2023-01-04T03:18:47.333Z,41.13
2023-01-04T03:21:18.175Z,39.28
2023-01-04T03:24:06.391Z,40.75
2023-01-04T03:27:00.205Z,41.40
2023-01-04T03:29:59.473Z,37.00
2023-01-04T03:32:57.342Z,41.88
2023-01-04T03:35:38.766Z,40.80
2023-01-04T03:38:31.466Z,39.08
2023-01-04T03:41:22.751Z,36.80
2023-01-04T03:44:42.301Z,34.33
2023-01-04T03:47:33.566Z,44.83
2023-01-04T03:50:19.642Z,40.60
2023-01-04T03:52:47.736Z,39.22
2023-01-04T03:55:16.086Z,34.58
2023-01-04T03:57:43.668Z,35.20
2023-01-04T04:00:18.993Z,38.17
2023-01-04T04:02:47.656Z,41.20
2023-01-04T04:05:38.019Z,39.20
2023-01-04T04:08:23.949Z,37.58
2023-01-04T04:10:51.270Z,39.47
2023-01-04T04:13:18.212Z,36.30
2023-01-04T04:15:45.055Z,42.20
2023-01-04T04:18:11.909Z,39.00
2023-01-04T04:20:39.019Z,41.83
2023-01-04T04:23:05.915Z,38.03
2023-01-04T04:25:32.868Z,43.58
2023-01-04T04:27:59.728Z,41.90
2023-01-04T04:30:26.558Z,41.85
2023-01-04T04:32:53.394Z,39.70
2023-01-04T04:35:20.230Z,39.55
2023-01-04T04:37:47.077Z,37.22
2023-01-04T04:40:36.602Z,40.75
2023-01-04T04:43:03.451Z,43.88
2023-01-04T04:45:30.387Z,38.65
2023-01-04T04:47:57.228Z,43.45
2023-01-04T04:50:24.029Z,44.05
2023-01-04T04:52:55.769Z,43.58
2023-01-04T04:55:23.278Z,40.10
2023-01-04T04:57:50.107Z,38.20
2023-01-04T05:00:17.509Z,39.72
2023-01-04T05:02:44.536Z,41.25
2023-01-04T05:05:11.483Z,42.67
2023-01-04T05:07:38.296Z,41.20
2023-01-04T05:10:05.575Z,38.53
2023-01-04T05:12:57.466Z,40.72
2023-01-04T05:15:24.797Z,38.72
2023-01-04T05:17:51.594Z,36.28
2023-01-04T05:20:18.496Z,41.30
2023-01-04T05:22:45.345Z,40.60
2023-01-04T05:25:12.821Z,39.35
2023-01-04T05:27:40.176Z,41.85
2023-01-04T05:30:25.981Z,37.47
2023-01-04T05:32:52.900Z,38.17
2023-01-04T05:35:19.743Z,44.15
2023-01-04T05:37:46.595Z,33.40
2023-01-04T05:40:13.391Z,38.58
2023-01-04T05:42:40.245Z,42.25
2023-01-04T05:45:07.691Z,38.88
2023-01-04T05:47:35.466Z,47.40
2023-01-04T05:50:04.278Z,44.78
2023-01-04T05:52:31.121Z,47.80
2023-01-04T05:54:58.077Z,46.17
2023-01-04T05:57:24.959Z,42.90
2023-01-04T05:59:51.846Z,45.58
2023-01-04T06:02:25.546Z,50.30
2023-01-04T06:04:58.522Z,45.63
2023-01-04T06:09:53.563Z,48.17
2023-01-04T06:12:20.612Z,46.80
2023-01-04T06:14:47.466Z,48.10
2023-01-04T06:17:14.614Z,50.95
2023-01-04T06:19:41.504Z,51.58
2023-01-04T06:22:08.866Z,56.50
2023-01-04T06:24:36.059Z,45.92
2023-01-04T06:27:03.500Z,49.05
2023-01-04T06:29:30.378Z,45.40
2023-01-04T06:31:57.269Z,46.63
2023-01-04T06:34:30.493Z,46.53
2023-01-04T06:36:58.341Z,46.25
2023-01-04T06:39:25.197Z,47.83
2023-01-04T06:41:52.171Z,52.42
2023-01-04T06:44:19.162Z,50.85
2023-01-04T06:46:46.096Z,41.67
2023-01-04T06:49:14.424Z,46.47
2023-01-04T06:51:41.405Z,41.40
2023-01-04T06:54:11.706Z,49.60
2023-01-04T06:56:39.149Z,48.85
2023-01-04T06:59:06.386Z,45.22
2023-01-04T07:01:33.537Z,42.92
2023-01-04T07:04:00.548Z,47.85
2023-01-04T07:06:27.646Z,49.35
2023-01-04T07:08:55.624Z,45.80
2023-01-04T07:11:22.492Z,48.95
2023-01-04T07:13:49.445Z,51.78
2023-01-04T07:16:16.387Z,49.83
2023-01-04T07:18:43.357Z,46.15
2023-01-04T07:21:10.293Z,46.63
2023-01-04T07:23:37.102Z,53.88
2023-01-04T07:26:04.001Z,49.55
2023-01-04T07:28:49.117Z,46.40
2023-01-04T07:31:16.069Z,53.33
2023-01-04T07:33:43.078Z,56.40
2023-01-04T07:36:10.096Z,53.63
2023-01-04T07:38:37.132Z,52.25
2023-01-04T07:41:04.768Z,55.65
2023-01-04T07:43:31.706Z,55.35
2023-01-04T07:45:58.882Z,53.53
2023-01-04T07:48:25.763Z,52.55
2023-01-04T07:50:52.563Z,49.85
2023-01-04T07:53:19.427Z,51.63
2023-01-04T07:55:46.325Z,52.55
2023-01-04T07:58:13.162Z,52.90
2023-01-04T08:00:40.096Z,55.40
2023-01-04T08:03:07.040Z,55.08
2023-01-04T08:05:34.620Z,49.83
2023-01-04T08:08:01.601Z,50.17
2023-01-04T08:10:28.804Z,51.78
2023-01-04T08:12:58.928Z,54.63
2023-01-04T08:15:26.761Z,50.88
2023-01-04T08:17:53.624Z,56.22
2023-01-04T08:20:20.600Z,49.25
2023-01-04T08:22:47.398Z,43.97
2023-01-04T08:25:14.239Z,43.33
2023-01-04T08:27:41.828Z,41.40
2023-01-04T08:30:09.283Z,40.53
2023-01-04T08:32:36.209Z,45.50
2023-01-04T08:35:03.412Z,39.05
2023-01-04T08:37:31.883Z,39.15
2023-01-04T08:39:58.751Z,37.55
2023-01-04T08:42:31.145Z,30.60
2023-01-04T08:45:01.599Z,36.67
2023-01-04T08:47:32.997Z,33.97
2023-01-04T08:50:04.723Z,33.20
2023-01-04T08:52:36.770Z,33.88
2023-01-04T08:55:10.182Z,31.80
2023-01-04T08:57:39.398Z,34.78
2023-01-04T09:00:06.889Z,34.80
2023-01-04T09:02:33.844Z,30.13
2023-01-04T09:05:03.134Z,32.65
2023-01-04T09:07:31.051Z,34.03
2023-01-04T09:09:58.015Z,29.42
2023-01-04T09:12:24.865Z,28.77
2023-01-04T09:14:51.680Z,29.73
2023-01-04T09:17:18.516Z,28.17
2023-01-04T09:19:47.642Z,24.58
2023-01-04T09:22:14.523Z,24.30
2023-01-04T09:24:41.352Z,20.42
2023-01-04T09:27:08.188Z,26.38
2023-01-04T09:29:35.387Z,22.23
2023-01-04T09:32:02.449Z,20.63
2023-01-04T09:34:29.410Z,20.40
2023-01-04T09:36:56.336Z,23.02
2023-01-04T09:39:26.305Z,20.98
2023-01-04T09:42:06.492Z,20.70
2023-01-04T09:47:44.117Z,20.05
2023-01-04T09:50:16.601Z,18.90
2023-01-04T09:52:59.473Z,17.80
2023-01-04T09:55:40.835Z,17.97
2023-01-04T09:58:16.885Z,20.88
2023-01-04T10:01:00.459Z,18.27
2023-01-04T10:03:36.669Z,21.00
2023-01-04T10:06:03.880Z,20.75
2023-01-04T10:08:33.496Z,20.88
2023-01-04T10:11:06.179Z,19.63
2023-01-04T10:14:00.648Z,21.20
2023-01-04T10:17:14.118Z,17.77
2023-01-04T10:22:42.127Z,20.15
2023-01-04T10:25:14.660Z,19.47
2023-01-04T10:27:59.684Z,20.57
2023-01-04T10:30:38.257Z,19.05
2023-01-04T10:33:16.435Z,18.60
2023-01-04T10:35:48.334Z,17.83
2023-01-04T10:38:24.601Z,16.10
2023-01-04T10:40:52.183Z,16.52
2023-01-04T10:44:09.744Z,15.60
2023-01-04T10:46:28.928Z,17.63
2023-01-04T10:49:33.852Z,16.17
2023-01-04T10:52:10.807Z,18.15
2023-01-04T10:55:00.052Z,15.65
2023-01-04T10:57:31.169Z,17.25
2023-01-04T11:00:07.319Z,16.55
2023-01-04T11:02:52.650Z,16.20
2023-01-04T11:05:25.593Z,19.58
2023-01-04T11:08:16.302Z,16.92
2023-01-04T11:10:50.688Z,17.48
2023-01-04T11:13:17.812Z,15.82
2023-01-04T11:15:47.739Z,16.52
2023-01-04T11:18:15.762Z,13.88
2023-01-04T11:20:43.116Z,14.70
2023-01-04T11:23:15.188Z,16.20
2023-01-04T11:25:56.110Z,16.05
2023-01-04T11:28:48.687Z,13.80
2023-01-04T11:31:28.901Z,16.30
2023-01-04T11:33:58.593Z,16.30
2023-01-04T11:36:31.521Z,16.88
2023-01-04T11:38:58.930Z,14.60
2023-01-04T11:41:26.746Z,14.07
2023-01-04T11:44:06.927Z,16.02
2023-01-04T11:46:35.058Z,15.00
2023-01-04T11:49:02.168Z,15.40
2023-01-04T11:51:29.104Z,14.90
2023-01-04T11:54:16.788Z,15.18
2023-01-04T11:57:12.078Z,15.70
2023-01-04T11:59:39.379Z,15.43
2023-01-04T12:05:29.101Z,14.93
2023-01-04T12:07:57.941Z,13.30
2023-01-04T12:10:27.248Z,17.05
2023-01-04T12:12:56.568Z,14.20
2023-01-04T12:15:53.756Z,14.63
2023-01-04T12:18:30.206Z,12.85
2023-01-04T12:20:57.655Z,13.18
2023-01-04T12:23:24.956Z,12.85
2023-01-04T12:25:53.530Z,13.15
2023-01-04T12:28:42.803Z,15.23
2023-01-04T12:31:22.407Z,13.05
2023-01-04T12:33:52.427Z,14.00
2023-01-04T12:36:21.464Z,13.15
2023-01-04T12:39:16.386Z,13.05
2023-01-04T12:41:45.296Z,14.00
2023-01-04T12:44:37.242Z,19.02
2023-01-04T12:47:37.879Z,15.25
2023-01-04T12:50:11.271Z,14.70
2023-01-04T12:55:37.705Z,13.25
2023-01-04T13:01:28.926Z,15.77
2023-01-04T13:04:22.854Z,14.65
2023-01-04T13:06:50.059Z,15.25
2023-01-04T13:09:24.221Z,14.57
2023-01-04T13:12:15.671Z,13.10
2023-01-04T13:14:51.698Z,15.85
2023-01-04T13:17:23.846Z,15.45
2023-01-04T13:20:19.694Z,13.27
2023-01-04T13:22:53.307Z,13.50
2023-01-04T13:25:21.692Z,15.98
2023-01-04T13:28:03.415Z,14.63
2023-01-04T13:30:40.569Z,12.10
2023-01-04T13:33:32.337Z,15.55
2023-01-04T13:36:12.148Z,15.82
2023-01-04T13:38:40.710Z,17.00
2023-01-04T13:41:20.926Z,15.48
2023-01-04T13:44:14.177Z,18.40
2023-01-04T13:46:43.468Z,14.02
2023-01-04T13:49:16.247Z,17.80
2023-01-04T13:51:43.283Z,16.13
2023-01-04T13:54:22.976Z,14.52
2023-01-04T13:59:42.127Z,15.32
2023-01-04T14:02:21.102Z,14.30
2023-01-04T14:04:50.832Z,14.68
2023-01-04T14:07:23.867Z,13.93
2023-01-04T14:09:54.729Z,16.35
2023-01-04T14:12:24.746Z,16.38
2023-01-04T14:14:56.231Z,15.30
2023-01-04T14:17:31.939Z,17.35
2023-01-04T14:20:15.415Z,19.52
2023-01-04T14:23:02.623Z,17.08
2023-01-04T14:25:37.220Z,21.15
2023-01-04T14:28:19.656Z,18.55
2023-01-04T14:30:56.046Z,22.90
2023-01-04T14:33:33.867Z,23.50
2023-01-04T14:36:04.925Z,22.88
2023-01-04T14:38:39.066Z,24.10
2023-01-04T14:41:18.161Z,23.83
2023-01-04T14:44:10.125Z,24.38
2023-01-04T14:46:37.272Z,23.83
2023-01-04T14:49:04.922Z,24.67
2023-01-04T14:51:38.582Z,25.58
2023-01-04T14:54:06.542Z,22.52
2023-01-04T14:56:34.480Z,23.95
2023-01-04T14:59:01.834Z,22.38
2023-01-04T15:01:28.751Z,20.58
2023-01-04T15:03:55.775Z,22.70
2023-01-04T15:06:22.799Z,20.98
2023-01-04T15:08:50.225Z,19.65
2023-01-04T15:11:17.839Z,20.67
2023-01-04T15:13:44.829Z,18.92
2023-01-04T15:16:16.023Z,19.55
2023-01-04T15:18:44.766Z,15.35
2023-01-04T15:21:12.881Z,14.75
2023-01-04T15:23:39.815Z,19.70
2023-01-04T15:26:09.128Z,16.80
2023-01-04T15:28:38.018Z,16.48
2023-01-04T15:31:13.422Z,15.75
2023-01-04T15:33:40.683Z,17.23
2023-01-04T15:36:11.565Z,15.38
2023-01-04T15:38:39.810Z,16.40
2023-01-04T15:41:33.057Z,15.93
2023-01-04T15:43:59.913Z,18.13
2023-01-04T15:46:26.958Z,16.45
2023-01-04T15:49:17.584Z,15.75
2023-01-04T15:51:45.419Z,16.60
2023-01-04T15:54:12.753Z,18.63
2023-01-04T15:56:40.449Z,15.93
2023-01-04T15:59:07.574Z,18.20
2023-01-04T16:01:34.592Z,14.43
2023-01-04T16:04:02.687Z,15.85
2023-01-04T16:06:29.689Z,16.50
2023-01-04T16:08:58.864Z,14.10
2023-01-04T16:11:25.862Z,16.85
2023-01-04T16:13:53.135Z,17.15
2023-01-04T16:16:22.538Z,15.30
2023-01-04T16:18:55.057Z,15.35
2023-01-04T16:21:27.669Z,16.15
2023-01-04T16:24:05.533Z,14.60
2023-01-04T16:26:36.998Z,14.63
2023-01-04T16:29:55.759Z,15.50
2023-01-04T16:32:22.691Z,13.77
2023-01-04T16:34:50.994Z,14.07
2023-01-04T16:37:18.759Z,14.57
2023-01-04T16:40:25.205Z,13.82
2023-01-04T16:42:52.316Z,14.52
2023-01-04T16:45:19.480Z,15.18
2023-01-04T16:47:46.562Z,13.88
2023-01-04T16:50:14.223Z,16.52
2023-01-04T16:52:41.286Z,13.65
2023-01-04T16:55:08.966Z,17.35
2023-01-04T16:57:36.141Z,14.05
2023-01-04T17:00:04.726Z,18.25
2023-01-04T17:02:31.772Z,17.40
2023-01-04T17:05:00.833Z,20.00
2023-01-04T17:07:32.555Z,19.80
2023-01-04T17:10:01.317Z,17.95
2023-01-04T17:15:41.815Z,16.08
2023-01-04T17:18:02.877Z,17.23
2023-01-04T17:21:11.106Z,16.40
2023-01-04T17:23:45.808Z,17.20
2023-01-04T17:26:19.190Z,16.10
2023-01-04T17:29:24.003Z,16.00
2023-01-04T17:31:51.176Z,14.45
2023-01-04T17:34:22.489Z,19.17
2023-01-04T17:36:49.917Z,16.10
2023-01-04T17:39:36.629Z,17.40
2023-01-04T17:42:03.538Z,18.13
2023-01-04T17:44:30.352Z,13.85
2023-01-04T17:46:57.269Z,16.92
2023-01-04T17:49:30.894Z,13.18
2023-01-04T17:51:59.021Z,14.68
2023-01-04T17:54:29.663Z,13.82
2023-01-04T17:56:56.741Z,18.40
2023-01-04T17:59:23.828Z,16.65
2023-01-04T18:01:50.974Z,16.95
2023-01-04T18:04:17.878Z,17.45
2023-01-04T18:06:44.745Z,17.85
2023-01-04T18:09:34.386Z,17.83
2023-01-04T18:12:01.223Z,16.35
2023-01-04T18:14:28.122Z,15.15
2023-01-04T18:16:58.687Z,15.10
2023-01-04T18:19:29.832Z,18.23
2023-01-04T18:21:57.184Z,16.38
2023-01-04T18:24:40.087Z,14.50
2023-01-04T18:27:27.684Z,16.90
2023-01-04T18:29:56.423Z,16.75
2023-01-04T18:32:24.998Z,15.48
2023-01-04T18:34:51.952Z,15.32
2023-01-04T18:37:19.516Z,18.35
2023-01-04T18:39:49.762Z,16.88
2023-01-04T18:42:17.087Z,18.63
2023-01-04T18:44:48.346Z,20.52
2023-01-04T18:47:21.187Z,16.77
2023-01-04T18:50:11.082Z,17.20
2023-01-04T18:52:37.930Z,14.55
2023-01-04T18:55:06.013Z,17.00
2023-01-04T18:57:33.088Z,17.35
2023-01-04T19:00:08.096Z,18.08
2023-01-04T19:02:35.349Z,16.10
2023-01-04T19:05:02.362Z,16.52
2023-01-04T19:07:29.209Z,15.90
2023-01-04T19:09:55.998Z,19.00
2023-01-04T19:12:22.911Z,19.17
2023-01-04T19:14:50.107Z,19.75
2023-01-04T19:17:17.453Z,17.42
2023-01-04T19:19:46.307Z,17.52
2023-01-04T19:22:13.248Z,18.50
2023-01-04T19:24:42.266Z,17.92
2023-01-04T19:27:09.328Z,16.20
2023-01-04T19:29:36.640Z,19.63
2023-01-04T19:32:03.679Z,20.80
2023-01-04T19:34:30.884Z,17.00
2023-01-04T19:36:57.926Z,18.98
2023-01-04T19:39:24.874Z,19.17
2023-01-04T19:41:51.739Z,20.25
2023-01-04T19:44:18.708Z,18.98
2023-01-04T19:46:45.565Z,16.13
2023-01-04T19:49:15.186Z,19.13
2023-01-04T19:51:47.215Z,17.38
2023-01-04T19:54:18.546Z,19.55
2023-01-04T19:56:50.143Z,18.13
2023-01-04T19:59:16.983Z,21.75
2023-01-04T20:01:44.007Z,22.75
2023-01-04T20:04:11.076Z,20.23
2023-01-04T20:06:38.857Z,19.33
2023-01-04T20:09:06.826Z,19.67
2023-01-04T20:11:33.720Z,18.02
2023-01-04T20:14:00.592Z,20.48
2023-01-04T20:16:28.692Z,22.70
2023-01-04T20:18:56.969Z,22.63
2023-01-04T20:21:25.984Z,21.98
2023-01-04T20:23:52.991Z,20.58
2023-01-04T20:26:19.957Z,20.50
2023-01-04T20:28:46.894Z,22.13
2023-01-04T20:31:16.426Z,23.52
2023-01-04T20:33:43.801Z,23.45
2023-01-04T20:36:16.612Z,20.88
2023-01-04T20:38:46.260Z,22.40
2023-01-04T20:41:18.887Z,22.38
2023-01-04T20:43:47.510Z,25.00
2023-01-04T20:46:20.436Z,23.10
2023-01-04T20:48:47.800Z,21.73
2023-01-04T20:51:17.801Z,22.38
2023-01-04T20:53:45.264Z,21.70
2023-01-04T20:56:22.210Z,22.23
2023-01-04T20:58:50.288Z,22.23
2023-01-04T21:01:18.729Z,19.33
2023-01-04T21:03:45.766Z,22.55
2023-01-04T21:06:16.031Z,21.48
2023-01-04T21:08:44.411Z,20.30
2023-01-04T21:11:12.843Z,20.48
2023-01-04T21:13:40.171Z,19.13
2023-01-04T21:16:07.302Z,20.92
2023-01-04T21:18:35.335Z,19.83
2023-01-04T21:21:13.846Z,19.05
2023-01-04T21:23:42.095Z,17.38
2023-01-04T21:26:15.674Z,18.23
2023-01-04T21:31:16.168Z,17.88
2023-01-04T21:33:45.922Z,17.38
2023-01-04T21:36:15.300Z,20.08
2023-01-04T21:38:42.405Z,16.02
2023-01-04T21:41:12.138Z,18.48
2023-01-04T21:43:39.830Z,14.90
2023-01-04T21:46:15.936Z,17.75
2023-01-04T21:48:45.104Z,20.27
2023-01-04T21:51:12.909Z,18.58
2023-01-04T21:53:40.926Z,20.27
2023-01-04T21:56:10.965Z,16.95
2023-01-04T21:58:39.840Z,18.60
2023-01-04T22:01:19.010Z,18.85
2023-01-04T22:03:46.011Z,19.95
2023-01-04T22:06:14.069Z,21.50
2023-01-04T22:08:46.281Z,20.55
2023-01-04T22:11:13.828Z,20.90
2023-01-04T22:13:40.754Z,22.30
2023-01-04T22:16:09.900Z,20.73
2023-01-04T22:18:37.528Z,20.98
2023-01-04T22:21:13.671Z,19.95
2023-01-04T22:23:40.871Z,19.40
2023-01-04T22:26:08.173Z,21.77
2023-01-04T22:28:37.314Z,18.60
2023-01-04T22:31:10.268Z,20.75
2023-01-04T22:33:37.960Z,18.83
2023-01-04T22:36:17.179Z,21.48
2023-01-04T22:38:50.173Z,20.00
2023-01-04T22:41:19.182Z,19.98
2023-01-04T22:43:46.357Z,22.42
2023-01-04T22:46:16.182Z,21.77
2023-01-04T22:48:43.852Z,18.25
2023-01-04T22:51:13.494Z,19.70
2023-01-04T22:53:41.016Z,20.77
2023-01-04T22:56:20.274Z,21.27
2023-01-04T22:58:53.452Z,18.83
2023-01-04T23:01:25.528Z,20.23
2023-01-04T23:03:52.749Z,19.45
2023-01-04T23:06:20.034Z,20.30
2023-01-04T23:08:47.175Z,19.02
2023-01-04T23:11:16.750Z,18.42
2023-01-04T23:13:43.870Z,18.10
2023-01-04T23:16:13.714Z,19.00
2023-01-04T23:18:40.787Z,20.13
2023-01-04T23:21:08.085Z,21.65
2023-01-04T23:23:35.093Z,18.15
2023-01-04T23:26:15.054Z,20.75
2023-01-04T23:28:43.325Z,19.33
2023-01-04T23:31:13.448Z,21.25
2023-01-04T23:33:40.812Z,19.73
2023-01-04T23:36:20.331Z,19.30
2023-01-04T23:38:52.795Z,19.92
2023-01-04T23:41:19.984Z,17.60
2023-01-04T23:43:46.863Z,22.35
2023-01-04T23:46:16.131Z,19.20
2023-01-04T23:48:44.577Z,21.30
2023-01-04T23:51:14.886Z,21.30
2023-01-04T23:53:41.837Z,19.92
2023-01-04T23:56:14.717Z,19.80
2023-01-04T23:58:42.304Z,17.77
